Time;durP1;ratioP1;P1;durP2;ratioP2;P2;SDS_P1;SDS_P2;PMS_P1;PMS_P2;Temp;Humidity;BMP_temperature;BMP_pressure;BME280_temperature;BME280_humidity;BME280_pressure;Samples;Min_cycle;Max_cycle;Signal;HPM_P1;HPM_P2
2022/10/14 05:01:32;;;;;;;17.08;10.07;;;13.10;99.90;;;;;;6083145;23;20964;-76
2022/10/14 05:03:58;;;;;;;15.70;9.65;;;13.10;99.90;;;;;;6170950;23;20308;-76
2022/10/14 05:06:24;;;;;;;16.65;9.07;;;13.10;99.90;;;;;;6197304;23;20219;-77
2022/10/14 05:08:52;;;;;;;18.52;11.35;;;13.10;99.90;;;;;;6196233;23;20005;-76
2022/10/14 05:11:18;;;;;;;18.13;11.45;;;13.20;99.90;;;;;;6222218;23;20226;-79
2022/10/14 05:13:51;;;;;;;17.30;10.23;;;13.10;99.90;;;;;;6223458;23;20001;-79
2022/10/14 05:16:17;;;;;;;14.95;10.18;;;13.10;99.90;;;;;;6197038;23;20060;-77
2022/10/14 05:18:43;;;;;;;15.07;10.80;;;13.10;99.90;;;;;;6221401;23;20005;-77
2022/10/14 05:21:11;;;;;;;16.65;10.70;;;13.10;99.90;;;;;;6223017;23;20159;-77
2022/10/14 05:23:55;;;;;;;16.30;10.98;;;13.10;99.90;;;;;;6225330;23;20015;-76
2022/10/14 05:26:22;;;;;;;17.60;10.82;;;13.10;99.90;;;;;;6224538;23;20008;-77
2022/10/14 05:28:51;;;;;;;16.33;10.55;;;13.10;99.90;;;;;;6223686;23;20040;-76
2022/10/14 05:31:18;;;;;;;15.02;10.30;;;13.10;99.90;;;;;;6224086;23;20068;-78
2022/10/14 05:33:51;;;;;;;16.20;11.10;;;13.10;99.90;;;;;;6198825;23;20027;-75
2022/10/14 05:36:17;;;;;;;14.75;11.32;;;13.10;99.90;;;;;;6224423;23;20333;-76
2022/10/14 05:38:43;;;;;;;18.10;11.00;;;13.20;99.90;;;;;;6223994;23;20107;-77
2022/10/14 05:41:09;;;;;;;15.68;9.77;;;13.20;99.90;;;;;;6223676;23;19997;-78
2022/10/14 05:43:35;;;;;;;16.92;10.20;;;13.20;99.90;;;;;;6199135;23;20008;-77
2022/10/14 05:46:04;;;;;;;17.48;10.02;;;13.20;99.90;;;;;;6198298;23;20060;-78
2022/10/14 05:48:35;;;;;;;14.77;9.95;;;13.30;99.90;;;;;;6224384;23;20011;-79
2022/10/14 05:51:02;;;;;;;18.10;10.90;;;13.30;99.90;;;;;;6198193;23;20023;-76
2022/10/14 05:53:31;;;;;;;20.80;11.10;;;13.40;99.90;;;;;;6223972;23;20324;-76
2022/10/14 05:56:07;;;;;;;19.08;11.15;;;13.30;99.90;;;;;;6223408;23;20465;-78
2022/10/14 05:58:33;;;;;;;20.35;10.55;;;13.40;99.90;;;;;;6175562;23;19996;-76
2022/10/14 06:01:04;;;;;;;19.75;11.00;;;13.40;99.90;;;;;;6224771;23;20055;-75
2022/10/14 06:03:31;;;;;;;17.70;10.80;;;13.30;99.90;;;;;;6252190;23;20000;-76
2022/10/14 06:05:56;;;;;;;23.92;11.95;;;13.30;99.90;;;;;;6228409;23;20015;-75
2022/10/14 06:08:23;;;;;;;22.92;11.73;;;13.40;99.90;;;;;;6255952;23;20205;-78
2022/10/14 06:10:50;;;;;;;19.17;11.93;;;13.40;99.90;;;;;;6279152;22;20007;-75
2022/10/14 06:13:16;;;;;;;17.20;12.18;;;13.40;99.90;;;;;;6255919;22;20029;-77
2022/10/14 06:15:45;;;;;;;17.50;10.38;;;13.40;99.90;;;;;;6278699;22;20024;-75
2022/10/14 06:18:11;;;;;;;19.75;11.75;;;13.40;99.90;;;;;;6253561;23;20262;-76
2022/10/14 06:20:37;;;;;;;19.05;10.85;;;13.40;99.90;;;;;;6279276;22;20008;-75
2022/10/14 06:23:03;;;;;;;17.98;11.02;;;13.40;99.90;;;;;;6253244;23;20135;-76
2022/10/14 06:25:30;;;;;;;17.65;10.77;;;13.50;99.90;;;;;;6255613;22;20004;-75
2022/10/14 06:28:02;;;;;;;16.35;10.40;;;13.50;99.90;;;;;;6253921;22;19996;-75
2022/10/14 06:30:28;;;;;;;17.50;10.52;;;13.50;99.90;;;;;;6254277;23;20004;-76
2022/10/14 06:32:53;;;;;;;15.77;9.45;;;13.50;99.90;;;;;;6253213;22;20007;-76
2022/10/14 06:35:19;;;;;;;18.05;10.45;;;13.50;99.90;;;;;;6253844;23;20024;-77
2022/10/14 06:37:46;;;;;;;15.57;9.18;;;13.60;99.90;;;;;;6254351;22;20178;-77
2022/10/14 06:40:11;;;;;;;14.77;9.02;;;13.70;99.90;;;;;;6253651;22;20011;-76
2022/10/14 06:42:37;;;;;;;12.90;8.45;;;13.70;99.90;;;;;;6253798;22;20000;-77
2022/10/14 06:45:05;;;;;;;12.20;8.00;;;13.80;99.90;;;;;;6253282;22;20007;-78
2022/10/14 06:47:31;;;;;;;17.48;9.80;;;13.90;99.90;;;;;;6253943;23;20090;-74
2022/10/14 06:49:57;;;;;;;15.90;9.75;;;14.00;99.90;;;;;;6253180;22;19992;-75
2022/10/14 06:52:22;;;;;;;15.40;8.65;;;14.00;99.90;;;;;;6253649;22;20010;-75
2022/10/14 06:54:48;;;;;;;17.35;9.63;;;14.10;99.90;;;;;;6252123;23;20249;-76
2022/10/14 06:57:14;;;;;;;14.32;9.18;;;14.10;99.90;;;;;;6253827;22;20004;-76
2022/10/14 06:59:40;;;;;;;17.90;9.38;;;14.30;99.90;;;;;;6253396;23;20008;-78
2022/10/14 07:02:07;;;;;;;14.27;9.57;;;14.30;99.90;;;;;;6252578;22;20004;-77
2022/10/14 07:04:33;;;;;;;13.35;8.85;;;14.40;99.90;;;;;;6253660;23;20000;-76
2022/10/14 07:06:58;;;;;;;11.07;7.45;;;14.40;99.90;;;;;;6253415;23;20105;-77
2022/10/14 07:09:24;;;;;;;10.90;7.45;;;14.50;99.90;;;;;;6251886;23;20429;-77
2022/10/14 07:11:50;;;;;;;14.07;7.57;;;14.50;99.90;;;;;;6252714;23;20236;-75
2022/10/14 07:14:16;;;;;;;9.73;7.68;;;14.50;99.90;;;;;;6252048;23;19996;-77
2022/10/14 07:16:42;;;;;;;13.38;8.05;;;14.50;99.90;;;;;;6253155;23;20042;-76
2022/10/14 07:19:08;;;;;;;10.40;7.40;;;14.40;99.90;;;;;;6251175;23;20009;-76
2022/10/14 07:21:34;;;;;;;13.32;8.00;;;14.40;99.90;;;;;;6253321;22;20000;-75
2022/10/14 07:24:00;;;;;;;16.00;8.75;;;14.50;99.90;;;;;;6253070;22;20079;-76
2022/10/14 07:26:25;;;;;;;15.18;8.80;;;14.50;99.90;;;;;;6253194;23;20008;-75
2022/10/14 07:28:51;;;;;;;13.88;8.93;;;14.50;99.90;;;;;;6252735;23;19988;-76
2022/10/14 07:31:17;;;;;;;15.90;8.57;;;14.60;99.90;;;;;;6253208;23;20003;-78
2022/10/14 07:33:42;;;;;;;13.50;9.00;;;14.60;99.90;;;;;;6252934;23;19999;-75
2022/10/14 07:36:11;;;;;;;12.38;8.50;;;14.60;99.90;;;;;;6252903;22;19998;-76
2022/10/14 07:38:37;;;;;;;13.23;8.70;;;14.90;99.90;;;;;;6253196;22;20007;-76
2022/10/14 07:41:06;;;;;;;13.13;8.43;;;14.90;99.90;;;;;;6252754;22;20012;-76
2022/10/14 07:43:33;;;;;;;14.63;8.35;;;15.10;99.90;;;;;;6277024;22;20030;-78
2022/10/14 07:46:04;;;;;;;13.20;8.45;;;15.30;99.90;;;;;;6276148;22;20040;-77
2022/10/14 07:48:31;;;;;;;12.27;7.70;;;15.60;99.90;;;;;;6277323;22;20163;-77
2022/10/14 07:51:00;;;;;;;15.02;7.63;;;15.60;99.90;;;;;;6276615;22;20008;-76
2022/10/14 07:53:29;;;;;;;12.00;7.25;;;15.70;99.90;;;;;;6277206;22;19996;-76
2022/10/14 07:55:58;;;;;;;;;;;15.70;99.90;;;;;;6250883;23;20004;-77
2022/10/14 07:58:26;;;;;;;15.18;7.32;;;15.70;99.90;;;;;;6252756;22;19927;-75
2022/10/14 08:00:53;;;;;;;12.18;6.93;;;15.80;99.90;;;;;;6251066;23;20302;-77
2022/10/14 08:03:20;;;;;;;12.13;7.82;;;15.80;99.90;;;;;;6253036;22;20011;-75
2022/10/14 08:05:46;;;;;;;10.90;7.07;;;15.70;99.90;;;;;;6253148;22;20278;-76
2022/10/14 08:08:13;;;;;;;10.27;7.72;;;15.60;99.90;;;;;;6250958;23;20167;-76
2022/10/14 08:10:39;;;;;;;13.75;8.50;;;15.50;99.90;;;;;;6252800;22;20000;-76
2022/10/14 08:13:08;;;;;;;14.73;8.32;;;15.50;99.90;;;;;;6252512;22;19992;-76
2022/10/14 08:15:37;;;;;;;30.42;22.60;;;15.50;99.90;;;;;;6252518;22;20004;-75
2022/10/14 08:18:04;;;;;;;15.80;11.02;;;15.50;99.90;;;;;;6252286;22;20026;-76
2022/10/14 08:20:31;;;;;;;12.32;8.43;;;15.50;99.90;;;;;;6276690;22;20229;-76
2022/10/14 08:22:57;;;;;;;14.52;8.05;;;15.50;99.90;;;;;;6252235;22;20043;-76
2022/10/14 08:25:23;;;;;;;15.35;8.65;;;15.40;99.90;;;;;;6252989;22;20004;-76
2022/10/14 08:27:50;;;;;;;14.68;8.45;;;15.50;99.90;;;;;;6252756;22;19988;-76
2022/10/14 08:30:16;;;;;;;12.95;8.35;;;15.30;99.90;;;;;;6252326;23;20091;-76
2022/10/14 08:32:42;;;;;;;16.55;8.88;;;15.30;99.90;;;;;;6252780;23;20041;-77
2022/10/14 08:35:10;;;;;;;15.73;8.65;;;15.40;99.90;;;;;;6250997;23;20004;-76
2022/10/14 08:37:42;;;;;;;13.88;9.27;;;15.40;99.90;;;;;;6252511;23;20016;-77
2022/10/14 08:40:29;;;;;;;15.73;10.63;;;15.50;99.90;;;;;;6273379;22;20023;-75
2022/10/14 08:43:16;;;;;;;15.95;9.23;;;15.60;99.90;;;;;;6252670;22;19996;-75
2022/10/14 08:45:50;;;;;;;14.13;7.65;;;15.80;99.90;;;;;;6251671;23;20008;-75
2022/10/14 08:48:36;;;;;;;11.98;6.65;;;16.00;99.90;;;;;;6276970;22;20000;-76
2022/10/14 08:51:03;;;;;;;12.80;7.38;;;16.20;99.90;;;;;;6250506;23;20185;-76
2022/10/14 08:53:37;;;;;;;9.63;6.82;;;16.30;99.90;;;;;;6253021;22;20012;-76
2022/10/14 08:56:06;;;;;;;13.48;7.03;;;16.50;99.90;;;;;;6252466;22;20008;-74
2022/10/14 08:58:53;;;;;;;11.90;7.07;;;16.70;99.90;;;;;;6252591;23;20007;-76
2022/10/14 09:01:43;;;;;;;12.52;7.18;;;16.90;99.90;;;;;;6252648;23;20008;-81
2022/10/14 09:04:13;;;;;;;12.32;6.07;;;17.00;99.90;;;;;;6220622;23;20028;-71
2022/10/14 09:06:41;;;;;;;10.60;6.10;;;17.10;99.90;;;;;;6222892;23;19993;-70
2022/10/14 09:09:39;;;;;;;12.30;6.00;;;17.30;99.90;;;;;;6222077;23;20011;-72
2022/10/14 09:12:11;;;;;;;10.52;5.90;;;17.30;99.90;;;;;;6214745;23;20008;-72
2022/10/14 09:14:41;;;;;;;11.75;5.60;;;17.40;99.90;;;;;;6223072;23;20008;-73
2022/10/14 09:17:25;;;;;;;9.27;5.68;;;17.60;99.90;;;;;;6194795;23;20022;-72
2022/10/14 09:20:04;;;;;;;12.25;5.82;;;17.70;99.90;;;;;;6221991;23;20008;-71
2022/10/14 09:22:30;;;;;;;9.13;4.97;;;17.70;99.90;;;;;;6222588;23;20091;-72
2022/10/14 09:24:57;;;;;;;8.40;5.38;;;17.70;99.90;;;;;;6195392;23;20060;-72
2022/10/14 09:27:23;;;;;;;8.93;5.20;;;17.70;99.90;;;;;;6222738;23;20052;-71
2022/10/14 09:29:57;;;;;;;7.53;4.70;;;17.80;99.90;;;;;;6222481;23;20194;-72
2022/10/14 09:32:42;;;;;;;6.85;4.22;;;17.80;99.90;;;;;;6222588;23;20043;-73
2022/10/14 09:35:19;;;;;;;12.65;4.72;;;17.80;99.90;;;;;;6222093;23;20008;-72
2022/10/14 09:37:44;;;;;;;9.63;5.15;;;17.70;99.90;;;;;;6222769;23;20000;-73
2022/10/14 09:40:35;;;;;;;9.30;4.93;;;17.70;99.90;;;;;;6221877;23;20371;-72
2022/10/14 09:43:06;;;;;;;9.50;5.68;;;17.70;99.90;;;;;;6221646;23;20004;-73
2022/10/14 09:45:55;;;;;;;12.02;5.85;;;17.90;99.90;;;;;;6222629;23;20000;-73
2022/10/14 09:48:21;;;;;;;8.23;5.05;;;17.90;99.90;;;;;;6222075;23;20310;-73
2022/10/14 09:50:55;;;;;;;10.60;5.55;;;17.90;99.90;;;;;;6222459;23;20059;-74
2022/10/14 09:53:45;;;;;;;11.77;6.38;;;18.00;99.90;;;;;;6220953;23;20283;-72
2022/10/14 09:56:12;;;;;;;9.15;6.20;;;18.20;99.90;;;;;;6195311;23;20056;-73
2022/10/14 09:58:45;;;;;;;11.57;6.18;;;18.30;99.90;;;;;;6222270;23;20039;-79
2022/10/14 10:01:22;;;;;;;16.80;5.75;;;18.50;99.90;;;;;;6222075;23;20012;-71
2022/10/14 10:03:49;;;;;;;13.43;8.90;;;18.80;99.90;;;;;;6252321;23;20058;-73
2022/10/14 10:06:19;;;;;;;7.93;5.55;;;19.00;99.90;;;;;;6251864;23;20226;-72
2022/10/14 10:08:56;;;;;;;23.20;14.30;;;19.20;99.90;;;;;;6253930;23;19996;-72
2022/10/14 10:11:36;;;;;;;14.00;6.05;;;19.40;99.90;;;;;;6254728;23;20166;-74
2022/10/14 10:14:22;;;;;;;10.35;4.85;;;19.40;99.90;;;;;;6253580;23;20015;-71
2022/10/14 10:17:11;;;;;;;8.20;4.70;;;19.70;99.90;;;;;;6254073;23;20229;-73
2022/10/14 10:19:42;;;;;;;7.70;4.68;;;20.00;99.90;;;;;;6254389;23;20015;-73
2022/10/14 10:22:37;;;;;;;8.27;5.40;;;20.10;99.90;;;;;;6253614;23;20102;-78
2022/10/14 10:25:04;;;;;;;9.05;4.63;;;20.00;99.90;;;;;;6252559;23;20022;-73
2022/10/14 10:27:35;;;;;;;9.48;4.97;;;20.10;99.90;;;;;;6253011;23;20004;-73
2022/10/14 10:30:16;;;;;;;11.02;4.60;;;20.20;99.90;;;;;;6253426;23;20014;-72
2022/10/14 10:32:47;;;;;;;7.70;4.65;;;20.00;99.90;;;;;;6254145;23;20052;-72
2022/10/14 10:35:43;;;;;;;12.93;6.63;;;19.70;99.90;;;;;;6253790;23;19992;-73
2022/10/14 10:38:24;;;;;;;10.32;4.93;;;19.70;99.90;;;;;;6253918;23;20000;-75
2022/10/14 10:41:07;;;;;;;11.75;5.20;;;19.80;99.90;;;;;;6253807;23;20003;-73
2022/10/14 10:44:08;;;;;;;9.70;5.93;;;19.80;99.90;;;;;;6254005;23;20003;-72
2022/10/14 10:47:11;;;;;;;16.58;11.05;;;19.80;99.90;;;;;;6238114;23;20360;-72
2022/10/14 10:49:57;;;;;;;13.05;5.70;;;19.90;99.90;;;;;;6254558;23;20203;-72
2022/10/14 10:52:40;;;;;;;10.18;4.70;;;20.00;99.90;;;;;;6254468;23;20143;-73
2022/10/14 10:55:21;;;;;;;13.85;4.97;;;19.80;99.90;;;;;;6253597;23;19996;-71
2022/10/14 10:57:47;;;;;;;7.88;4.65;;;19.70;99.90;;;;;;6254323;23;20015;-72
2022/10/14 11:00:15;;;;;;;8.57;4.68;;;19.70;99.90;;;;;;6253199;23;20294;-73
2022/10/14 11:02:55;;;;;;;9.93;4.28;;;19.70;99.90;;;;;;6254105;23;20057;-73
2022/10/14 11:05:47;;;;;;;6.63;4.47;;;19.70;99.90;;;;;;6253719;23;20096;-73
2022/10/14 11:12:09;;;;;;;6.35;4.20;;;19.40;99.90;;;;;;6254554;23;20027;-74
2022/10/14 11:14:47;;;;;;;8.40;4.13;;;19.40;99.90;;;;;;6241191;23;19996;-74
2022/10/14 11:17:41;;;;;;;7.88;4.10;;;19.30;99.90;;;;;;6253449;23;20000;-72
2022/10/14 11:20:16;;;;;;;10.02;5.93;;;19.20;99.90;;;;;;6253256;23;20004;-73
2022/10/14 11:22:53;;;;;;;5.63;3.17;;;19.20;99.90;;;;;;6253903;23;19996;-72
2022/10/14 11:25:40;;;;;;;8.63;2.60;;;19.10;99.90;;;;;;6253811;23;19992;-73
2022/10/14 11:28:24;;;;;;;5.00;2.45;;;18.90;99.90;;;;;;6253521;23;20000;-72
2022/10/14 11:31:26;;;;;;;5.28;2.75;;;18.40;99.90;;;;;;6254156;23;20040;-71
2022/10/14 11:34:32;;;;;;;5.55;3.00;;;18.10;99.90;;;;;;6225411;23;20024;-73
2022/10/14 11:37:22;;;;;;;8.57;2.40;;;18.10;99.90;;;;;;6227278;23;20003;-72
2022/10/14 11:39:54;;;;;;;4.82;2.60;;;18.20;99.90;;;;;;6253676;23;20034;-71
2022/10/14 11:42:45;;;;;;;7.90;2.50;;;18.40;99.90;;;;;;6252835;23;20014;-73
2022/10/14 11:45:39;;;;;;;7.32;2.60;;;18.60;99.90;;;;;;6249891;23;20290;-72
2022/10/14 11:48:21;;;;;;;5.32;2.72;;;18.60;99.90;;;;;;6253566;23;20000;-73
2022/10/14 11:50:52;;;;;;;5.20;2.35;;;18.80;99.90;;;;;;6253617;23;20007;-74
2022/10/14 11:53:30;;;;;;;4.10;2.25;;;19.00;99.90;;;;;;6253382;23;20019;-73
2022/10/14 11:56:44;;;;;;;4.68;2.28;;;19.20;99.90;;;;;;6252873;23;20008;-73
2022/10/14 12:03:11;;;;;;;3.67;2.08;;;20.00;99.90;;;;;;6253161;23;20064;-72
2022/10/14 12:05:51;;;;;;;4.57;2.90;;;20.30;99.90;;;;;;6254622;23;20190;-70
2022/10/14 12:09:02;;;;;;;3.63;2.25;;;20.50;99.90;;;;;;6252588;23;20000;-79
2022/10/14 12:11:34;;;;;;;5.47;2.45;;;20.30;99.90;;;;;;6160661;23;20013;-73
2022/10/14 12:14:41;;;;;;;5.32;2.28;;;20.40;99.90;;;;;;6253064;23;20061;-74
2022/10/14 12:17:34;;;;;;;5.50;3.35;;;20.50;99.90;;;;;;6227271;23;20000;-70
2022/10/14 12:20:15;;;;;;;5.85;2.55;;;20.70;99.90;;;;;;6253532;23;20067;-72
2022/10/14 12:22:41;;;;;;;5.97;2.10;;;20.70;99.90;;;;;;6253344;23;20364;-71
2022/10/14 12:25:16;;;;;;;7.60;2.65;;;20.70;99.90;;;;;;6253346;23;20007;-73
2022/10/14 12:27:42;;;;;;;3.65;2.15;;;20.90;99.90;;;;;;6253287;23;19992;-71
2022/10/14 12:30:40;;;;;;;4.82;2.35;;;21.40;99.90;;;;;;6251916;23;20055;-71
2022/10/14 12:33:11;;;;;;;5.82;1.80;;;21.80;99.90;;;;;;6245725;23;20295;-70
2022/10/14 12:35:53;;;;;;;5.63;2.35;;;22.00;99.90;;;;;;6252777;23;20000;-72
2022/10/14 12:38:20;;;;;;;5.43;2.23;;;21.80;99.90;;;;;;6252536;23;20049;-74
2022/10/14 12:40:48;;;;;;;5.88;1.73;;;22.20;99.90;;;;;;6253276;23;20423;-73
2022/10/14 12:43:24;;;;;;;5.32;1.55;;;22.40;99.90;;;;;;6252916;23;19996;-73
2022/10/14 12:46:03;;;;;;;3.75;1.60;;;22.40;99.90;;;;;;6253125;23;20033;-71
2022/10/14 12:48:33;;;;;;;3.10;1.15;;;22.10;99.90;;;;;;6253417;23;20000;-69
2022/10/14 12:51:21;;;;;;;4.07;1.15;;;22.10;99.90;;;;;;6253172;23;20004;-71
2022/10/14 12:53:53;;;;;;;4.13;1.23;;;21.90;99.90;;;;;;6252813;23;20055;-70
2022/10/14 12:56:43;;;;;;;3.97;1.40;;;21.70;99.90;;;;;;6252105;23;19996;-71
2022/10/14 12:59:25;;;;;;;2.83;1.30;;;21.70;99.90;;;;;;6252391;23;20353;-72
2022/10/14 13:01:57;;;;;;;2.33;1.10;;;21.40;99.90;;;;;;6252350;23;20008;-72
2022/10/14 13:04:23;;;;;;;4.55;1.30;;;21.00;99.90;;;;;;6252050;23;20050;-72
2022/10/14 13:07:13;;;;;;;2.67;1.20;;;21.00;99.90;;;;;;6252946;23;19992;-70
2022/10/14 13:09:39;;;;;;;2.67;1.20;;;20.80;99.90;;;;;;6253004;23;20235;-72
2022/10/14 13:12:07;;;;;;;2.92;1.20;;;20.80;99.90;;;;;;6252330;23;19996;-72
2022/10/14 13:15:04;;;;;;;4.40;1.15;;;20.70;99.90;;;;;;6225889;23;20003;-71
2022/10/14 13:17:45;;;;;;;3.55;1.20;;;20.80;99.90;;;;;;6252994;23;20069;-70
2022/10/14 13:20:34;;;;;;;2.28;0.80;;;20.70;99.90;;;;;;6252124;23;20004;-72
2022/10/14 13:23:39;;;;;;;4.28;1.10;;;21.00;99.90;;;;;;6238804;23;20167;-72
2022/10/14 13:26:17;;;;;;;3.13;1.40;;;21.00;99.90;;;;;;6251902;23;20004;-71
2022/10/14 13:29:13;;;;;;;2.88;1.00;;;21.00;99.90;;;;;;6252943;23;20004;-71
2022/10/14 13:32:02;;;;;;;3.80;1.33;;;21.00;99.90;;;;;;6225658;23;20211;-70
2022/10/14 13:34:46;;;;;;;2.97;1.25;;;20.70;99.90;;;;;;6252476;23;20001;-72
2022/10/14 13:37:33;;;;;;;5.15;1.20;;;;;;;;;;6251731;23;19996;-72
2022/10/14 13:40:26;;;;;;;4.60;1.15;;;20.20;99.90;;;;;;6252876;23;20183;-71
2022/10/14 13:42:56;;;;;;;2.15;1.00;;;20.20;99.90;;;;;;6252582;23;20126;-71
2022/10/14 13:45:33;;;;;;;3.40;1.45;;;19.90;99.90;;;;;;6253785;23;20007;-72
2022/10/14 13:48:00;;;;;;;4.10;1.23;;;20.00;99.90;;;;;;6255195;23;20024;-71
2022/10/14 13:50:33;;;;;;;2.53;1.13;;;20.00;99.90;;;;;;6253904;23;20031;-72
2022/10/14 13:53:17;;;;;;;2.65;1.05;;;19.90;99.90;;;;;;6254449;23;20286;-71
2022/10/14 13:55:44;;;;;;;3.25;1.05;;;20.00;99.90;;;;;;6254611;23;20298;-72
2022/10/14 13:58:12;;;;;;;1.90;0.77;;;19.70;99.90;;;;;;6252375;23;19996;-72
2022/10/14 14:00:43;;;;;;;3.30;1.00;;;19.60;99.90;;;;;;6254380;23;20008;-72
2022/10/14 14:03:20;;;;;;;2.53;0.95;;;19.50;99.90;;;;;;6253944;23;20008;-72
2022/10/14 14:05:47;;;;;;;2.10;0.85;;;19.60;99.90;;;;;;6254921;23;20038;-72
2022/10/14 14:08:21;;;;;;;5.30;1.30;;;19.60;99.90;;;;;;6253597;23;20050;-73
2022/10/14 14:10:55;;;;;;;2.85;0.90;;;19.50;99.90;;;;;;6254871;23;20004;-73
2022/10/14 14:13:23;;;;;;;1.70;0.80;;;19.60;99.90;;;;;;6253676;23;20011;-72
2022/10/14 14:15:52;;;;;;;2.63;1.10;;;19.20;99.90;;;;;;6254558;23;20004;-73
2022/10/14 14:18:32;;;;;;;2.30;1.02;;;19.10;99.90;;;;;;6254132;23;19988;-72
2022/10/14 14:20:59;;;;;;;3.13;1.40;;;18.90;99.90;;;;;;6254647;23;20008;-72
2022/10/14 14:23:57;;;;;;;4.22;1.15;;;18.70;99.90;;;;;;6254244;23;20103;-73
2022/10/14 14:31:03;;;;;;;3.00;1.20;;;17.40;99.90;;;;;;6254028;23;20118;-75
2022/10/14 14:33:32;;;;;;;2.67;1.58;;;17.00;99.90;;;;;;6253569;23;19998;-75
2022/10/14 14:36:03;;;;;;;3.72;1.40;;;16.80;99.90;;;;;;6254122;23;20000;-75
2022/10/14 14:38:32;;;;;;;4.07;1.42;;;16.70;99.90;;;;;;6253836;23;19998;-72
2022/10/14 14:41:06;;;;;;;2.55;1.20;;;16.60;99.90;;;;;;6254082;23;20032;-74
2022/10/14 14:43:33;;;;;;;3.38;1.67;;;16.70;99.90;;;;;;6253421;23;20037;-73
2022/10/14 14:46:03;;;;;;;4.53;1.58;;;16.80;99.90;;;;;;6253650;23;20028;-73
2022/10/14 14:48:29;;;;;;;4.70;2.30;;;16.90;99.90;;;;;;6253528;23;20004;-73
2022/10/14 14:50:56;;;;;;;3.28;2.00;;;16.90;99.90;;;;;;6254261;23;20011;-73
2022/10/14 14:53:28;;;;;;;4.95;1.90;;;16.90;99.90;;;;;;6253541;23;20059;-72
2022/10/14 14:56:00;;;;;;;3.70;1.92;;;16.90;99.90;;;;;;6253491;23;20046;-73
2022/10/14 14:58:28;;;;;;;3.65;1.83;;;17.00;99.90;;;;;;6252913;23;20008;-72
2022/10/14 15:00:55;;;;;;;2.95;1.52;;;17.10;99.90;;;;;;6201959;23;20298;-73
2022/10/14 15:03:27;;;;;;;5.00;2.10;;;17.20;99.90;;;;;;6253395;23;20063;-75
2022/10/14 15:06:02;;;;;;;4.43;1.90;;;17.20;99.90;;;;;;6254067;23;20000;-74
2022/10/14 15:08:34;;;;;;;6.68;2.40;;;17.30;99.90;;;;;;6253169;23;20008;-74
2022/10/14 15:11:00;;;;;;;4.13;2.15;;;17.30;99.90;;;;;;6253394;23;20038;-74
2022/10/14 15:13:47;;;;;;;4.00;1.70;;;17.30;99.90;;;;;;6252947;23;19992;-71
2022/10/14 15:16:41;;;;;;;4.50;1.93;;;17.40;99.90;;;;;;6225755;23;20278;-72
2022/10/14 15:19:19;;;;;;;4.50;1.95;;;17.40;99.90;;;;;;6253444;23;20287;-71
2022/10/14 15:22:08;;;;;;;3.75;2.05;;;17.30;99.90;;;;;;6253956;23;20003;-72
2022/10/14 15:24:34;;;;;;;3.75;2.15;;;17.30;99.90;;;;;;6253336;23;20011;-73
2022/10/14 15:27:30;;;;;;;6.47;3.42;;;17.30;99.90;;;;;;6253271;23;20213;-73
2022/10/14 15:30:19;;;;;;;7.05;4.57;;;17.20;99.90;;;;;;6253194;23;20010;-72
2022/10/14 15:32:45;;;;;;;12.80;6.88;;;17.10;99.90;;;;;;6253786;23;20010;-71
2022/10/14 15:35:12;;;;;;;3.75;2.15;;;17.10;99.90;;;;;;6253282;23;20021;-72
2022/10/14 15:37:39;;;;;;;5.88;2.35;;;17.00;99.90;;;;;;6226702;23;20000;-72
2022/10/14 15:40:17;;;;;;;4.95;1.92;;;17.00;99.90;;;;;;6253670;23;20189;-71
2022/10/14 15:42:43;;;;;;;5.43;3.45;;;17.00;99.90;;;;;;6253463;23;20019;-73
2022/10/14 15:45:10;;;;;;;4.63;3.00;;;17.00;99.90;;;;;;6253022;23;20019;-72
2022/10/14 15:47:36;;;;;;;2.65;1.45;;;16.90;99.90;;;;;;6253318;23;20054;-72
2022/10/14 15:50:17;;;;;;;5.20;2.70;;;16.90;99.90;;;;;;6226451;23;20035;-72
2022/10/14 15:52:52;;;;;;;4.72;2.30;;;16.90;99.90;;;;;;6253338;23;20219;-73
2022/10/14 15:55:28;;;;;;;3.17;1.80;;;16.80;99.90;;;;;;6252772;23;20000;-74
2022/10/14 15:57:56;;;;;;;3.80;1.58;;;16.70;99.90;;;;;;6253374;23;20372;-74
2022/10/14 16:00:23;;;;;;;3.63;1.60;;;16.70;99.90;;;;;;6252730;23;20198;-73
2022/10/14 16:02:59;;;;;;;3.63;1.37;;;16.70;99.90;;;;;;6252577;23;20007;-74
2022/10/14 16:05:27;;;;;;;16.33;10.10;;;16.60;99.90;;;;;;6252708;23;20000;-72
2022/10/14 16:07:53;;;;;;;;;;;16.50;99.90;;;;;;6252245;23;20061;-74
2022/10/14 16:10:20;;;;;;;5.93;3.40;;;16.50;99.90;;;;;;6252906;23;19919;-73
2022/10/14 16:12:47;;;;;;;8.65;5.85;;;16.50;99.90;;;;;;6226070;23;20004;-72
2022/10/14 16:15:24;;;;;;;3.28;2.40;;;16.40;99.90;;;;;;6252695;23;19991;-72
2022/10/14 16:17:50;;;;;;;2.83;1.50;;;16.40;99.90;;;;;;6226768;23;20004;-72
2022/10/14 16:20:17;;;;;;;3.55;1.95;;;16.40;99.90;;;;;;6252190;23;20111;-72
2022/10/14 16:22:43;;;;;;;3.67;1.50;;;16.30;99.90;;;;;;6225806;23;20218;-73
2022/10/14 16:25:39;;;;;;;7.85;5.38;;;16.30;99.90;;;;;;6252565;23;20156;-73
2022/10/14 16:28:06;;;;;;;4.05;2.47;;;16.30;99.90;;;;;;6226628;23;20035;-74
2022/10/14 16:30:35;;;;;;;3.17;1.42;;;16.20;99.90;;;;;;6252246;23;20003;-74
2022/10/14 16:33:02;;;;;;;2.88;1.30;;;16.20;99.90;;;;;;6226387;23;20066;-74
2022/10/14 16:35:28;;;;;;;4.47;1.23;;;16.20;99.90;;;;;;6225489;23;20027;-74
2022/10/14 16:37:54;;;;;;;4.22;1.25;;;16.20;99.90;;;;;;6251401;23;20277;-74
2022/10/14 16:40:20;;;;;;;2.30;1.08;;;16.10;99.90;;;;;;6252599;23;20046;-74
2022/10/14 16:42:46;;;;;;;2.80;1.50;;;16.10;99.90;;;;;;6252559;23;20004;-74
2022/10/14 16:45:12;;;;;;;2.97;1.40;;;16.10;99.90;;;;;;6252149;23;20060;-71
2022/10/14 16:47:40;;;;;;;3.22;0.98;;;16.10;99.90;;;;;;6252383;23;20023;-72
2022/10/14 16:50:07;;;;;;;3.13;1.00;;;16.10;99.90;;;;;;6226392;23;20007;-72
2022/10/14 16:53:39;;;;;;;2.38;1.08;;;16.10;99.90;;;;;;6251825;23;20030;-73
2022/10/14 16:55:21;;;;;;;2.83;1.40;;;16.10;99.90;;;;;;6251785;23;20007;-73
2022/10/14 16:57:49;;;;;;;3.72;1.92;;;16.10;99.90;;;;;;6225987;23;20068;-76
2022/10/14 17:00:16;;;;;;;;;;;16.10;99.90;;;;;;6226079;23;20225;-72
2022/10/14 17:02:41;;;;;;;2.33;1.15;;;16.00;99.90;;;;;;6251123;23;19907;-73
2022/10/14 17:05:07;;;;;;;11.65;8.60;;;16.00;99.90;;;;;;6252926;23;20007;-74
2022/10/14 17:07:33;;;;;;;4.90;3.90;;;16.00;99.90;;;;;;6252233;23;20014;-74
2022/10/14 17:09:59;;;;;;;4.50;2.88;;;16.00;99.90;;;;;;6252811;23;20178;-74
2022/10/14 17:12:25;;;;;;;5.50;3.90;;;16.00;99.90;;;;;;6252433;23;20000;-72
2022/10/14 17:14:51;;;;;;;4.13;2.60;;;15.90;99.90;;;;;;6252507;23;20004;-73
2022/10/14 17:17:17;;;;;;;4.03;2.05;;;15.90;99.90;;;;;;6225286;23;20147;-74
2022/10/14 17:19:43;;;;;;;4.72;2.95;;;15.90;99.90;;;;;;6252179;23;20074;-72
2022/10/14 17:22:10;;;;;;;4.80;3.10;;;15.90;99.90;;;;;;6252835;23;20074;-73
2022/10/14 17:24:36;;;;;;;5.40;3.00;;;15.90;99.90;;;;;;6226008;23;20019;-73
2022/10/14 17:27:03;;;;;;;7.35;5.15;;;15.80;99.90;;;;;;6252799;23;20031;-72
2022/10/14 17:29:30;;;;;;;5.37;3.50;;;15.80;99.90;;;;;;6250848;23;20004;-71
2022/10/14 17:31:56;;;;;;;4.97;2.70;;;15.80;99.90;;;;;;6252749;23;20179;-71
2022/10/14 17:34:22;;;;;;;4.18;2.50;;;15.70;99.90;;;;;;6252327;23;20004;-74
2022/10/14 17:36:49;;;;;;;8.27;3.35;;;15.70;99.90;;;;;;6252664;23;20160;-72
2022/10/14 17:39:17;;;;;;;9.75;4.30;;;15.70;99.90;;;;;;6225343;23;20245;-74
2022/10/14 17:41:42;;;;;;;5.38;2.67;;;15.70;99.90;;;;;;6252840;23;20000;-72
2022/10/14 17:44:08;;;;;;;6.75;2.65;;;15.60;99.90;;;;;;6252878;23;20000;-72
2022/10/14 17:46:34;;;;;;;11.73;4.72;;;15.60;99.90;;;;;;6251275;23;20140;-72
2022/10/14 17:49:02;;;;;;;8.50;4.53;;;15.60;99.90;;;;;;6252719;23;20001;-73
2022/10/14 17:51:30;;;;;;;5.72;2.67;;;15.60;99.90;;;;;;6252102;23;20033;-72
2022/10/14 17:53:58;;;;;;;8.00;4.80;;;15.60;99.90;;;;;;6252499;23;20000;-72
2022/10/14 17:56:26;;;;;;;5.93;2.50;;;15.60;99.90;;;;;;6252100;23;19992;-73
2022/10/14 17:59:01;;;;;;;5.67;3.27;;;15.60;99.90;;;;;;6252269;23;20111;-74
2022/10/14 18:01:28;;;;;;;32.72;25.05;;;15.60;99.90;;;;;;6251699;23;20804;-72
2022/10/14 18:03:55;;;;;;;9.10;6.43;;;15.50;99.90;;;;;;6252140;23;20000;-73
2022/10/14 18:06:28;;;;;;;6.13;4.20;;;15.50;99.90;;;;;;6251973;23;20016;-74
2022/10/14 18:08:56;;;;;;;3.08;1.95;;;15.60;99.90;;;;;;6252546;23;20000;-74
2022/10/14 18:11:24;;;;;;;3.22;1.63;;;15.60;99.90;;;;;;6251874;23;19995;-73
2022/10/14 18:13:55;;;;;;;3.55;2.00;;;15.60;99.90;;;;;;6252503;23;20004;-72
2022/10/14 18:16:25;;;;;;;3.60;2.25;;;15.60;99.90;;;;;;6251449;23;20000;-72
2022/10/14 18:18:53;;;;;;;4.40;1.85;;;15.60;99.90;;;;;;6252231;23;20128;-75
2022/10/14 18:21:20;;;;;;;4.80;2.80;;;15.60;99.90;;;;;;6251460;23;20012;-75
2022/10/14 18:23:46;;;;;;;5.47;3.20;;;15.60;99.90;;;;;;6225913;23;19995;-73
2022/10/14 18:26:14;;;;;;;7.10;4.20;;;15.60;99.90;;;;;;6252491;23;20011;-73